Terminal Aerodrome Forecast
Issued by NWS Quad Cities IA IL

Home | Current Version | Previous Version | Text Only | Print | Product List | Glossary On
Versions: 1 2 3 4 5 6 7 8 9 10 11 12 13 14 15 16 17 18 19 20 21 22 23 24
000
FTUS43 KDVN 091844 AAA
TAFDBQ
TAF AMD
KDBQ 091844Z 0919/1018 35015G24KT P6SM SCT025 BKN035
     FM092000 34014KT P6SM SCT029 BKN040
     FM100000 29006KT P6SM BKN200
     FM100700 20009KT P6SM BKN150=

USA.gov is the U.S. government's official web portal to all federal, state and local government web resources and services.